Maersk Visby — 9V8827 — position and weather

sailwx.info

Track history (hours):
 
Tides and Currents Weather Stations Pressure Air Temp Water Temp Dewpoint Dewpoint Depression Visibility Wind Speed Wind Dir Waves Ship Positions

Maersk Visby

Last reported at 2016-Aug-20 15:31 UTC. Time now 2016-Aug-24 16:13 UTC.
Position N 17°38' W 060°47'.

Length 180 m; draft 8.1 m.

Type: Ship (hazmat cat A). MMSI: 564979000.

Date/timePositionNaut miles runAvg speedWind from/ knotsBaromVisibWave heightAir tempDewpointWater temp
2016-Aug-20 15:31N 17°38' W 060°47'1415.0
2016-Aug-20 14:33N 17°46' W 061°00'1615.2
2016-Aug-20 13:30N 17°55' W 061°14'1915.4
2016-Aug-20 12:16N 18°06' W 061°30'  
2016-Aug-15 03:04N 32°56' W 078°42'714.5
2016-Aug-15 02:33N 32°59' W 078°34'1414.3
2016-Aug-15 01:33N 33°04' W 078°18'8814.1
2016-Aug-14 19:22N 33°53' W 076°51'1214.4
2016-Aug-14 18:30N 34°01' W 076°39'1614.7
2016-Aug-14 17:24N 34°11' W 076°24'1915.2
2016-Aug-14 16:09N 34°23' W 076°06'14810.2
2016-Aug-14 01:32N 36°51' W 075°50'1313.2
2016-Aug-14 00:33N 36°58' W 076°04'1312.9
2016-Aug-13 23:33N 36°57' W 076°20'5 4.6
2016-Aug-13 22:33N 36°53' W 076°21'0 0.0
2016-Aug-13 21:31N 36°53' W 076°21'0 0.0
2016-Aug-13 20:31N 36°53' W 076°21'0 0.0
2016-Aug-13 19:31N 36°53' W 076°21'0 0.0
2016-Aug-13 18:31N 36°53' W 076°21'0 0.0
2016-Aug-13 17:31N 36°53' W 076°21'0 0.0
2016-Aug-13 16:31N 36°53' W 076°21'0 0.0
2016-Aug-13 15:31N 36°53' W 076°21'0 0.2
2016-Aug-13 14:33N 36°53' W 076°21'11 8.0
2016-Aug-13 13:13N 36°59' W 076°10'913.6
2016-Aug-13 12:33N 36°57' W 075°60'1716.1
2016-Aug-13 11:31N 37°12' W 076°09'1717.4
2016-Aug-13 10:33N 37°28' W 076°04'2016.4
2016-Aug-13 09:19N 37°48' W 076°11'1417.9
2016-Aug-13 08:34N 38°01' W 076°12'2018.6
2016-Aug-13 07:30N 38°20' W 076°19'1917.7
2016-Aug-13 06:26N 38°39' W 076°25'1617.7
2016-Aug-13 05:33N 38°54' W 076°24'1515.2
2016-Aug-13 04:33N 39°09' W 076°25'9 8.7
2016-Aug-13 03:33N 39°15' W 076°33'0 0.0
2016-Aug-13 02:33N 39°15' W 076°33'0 0.0
2016-Aug-13 01:33N 39°15' W 076°33'0 0.0
2016-Aug-13 00:33N 39°15' W 076°33'0 0.0
2016-Aug-12 23:33N 39°15' W 076°33'0 0.0
2016-Aug-12 22:33N 39°15' W 076°33'0 0.0
2016-Aug-12 21:33N 39°15' W 076°33'0 0.0
2016-Aug-12 20:33N 39°15' W 076°33'0 0.0
2016-Aug-12 19:33N 39°15' W 076°33'0 0.0
2016-Aug-12 18:33N 39°15' W 076°33'0 0.0
2016-Aug-12 17:24N 39°15' W 076°33'0 0.0
2016-Aug-12 16:33N 39°15' W 076°33'0 0.0
2016-Aug-12 15:33N 39°15' W 076°33'0 0.0
2016-Aug-12 14:33N 39°15' W 076°33'0 0.0
2016-Aug-12 13:30N 39°15' W 076°33'0 0.0
2016-Aug-12 12:33N 39°15' W 076°33'0 0.0
2016-Aug-12 11:33N 39°15' W 076°33'0 0.0
2016-Aug-12 10:33N 39°15' W 076°33'2 1.8
2016-Aug-12 09:33N 39°14' W 076°32'1312.9
2016-Aug-12 08:33N 39°03' W 076°23'1716.7
2016-Aug-12 07:33N 38°46' W 076°26'2418.8
2016-Aug-12 06:18N 38°23' W 076°20'1317.9
2016-Aug-12 05:33N 38°10' W 076°14'1919.1
2016-Aug-12 04:33N 37°52' W 076°09'1816.2
2016-Aug-12 03:27N 37°35' W 076°03'1617.3
2016-Aug-12 02:33N 37°19' W 076°06'1816.1
2016-Aug-12 01:26N 37°01' W 076°03'1313.5
2016-Aug-12 00:30N 36°53' W 075°52'2312.0
2016-Aug-11 22:33N 36°55' W 075°22'8013.1
2016-Aug-11 16:25N 38°01' W 074°25'2512.7
2016-Aug-11 14:28N 38°22' W 074°07'1212.9
2016-Aug-11 13:33N 38°32' W 074°01'1312.9
2016-Aug-11 12:33N 38°45' W 073°59'1312.9
2016-Aug-11 11:33N 38°58' W 073°57'1312.6
2016-Aug-11 10:34N 39°10' W 073°55'1212.5
2016-Aug-11 09:33N 39°23' W 073°54'1312.5
2016-Aug-11 08:33N 39°35' W 073°53'1312.6
2016-Aug-11 07:33N 39°48' W 073°51'1312.5
2016-Aug-11 06:33N 40°00' W 073°50'2811.4
2016-Aug-11 04:05N 40°29' W 073°53'913.2
2016-Aug-11 03:26N 40°34' W 074°02'7 7.7
2016-Aug-11 02:33N 40°39' W 074°08'3 2.7
2016-Aug-11 01:33N 40°41' W 074°09'0 0.0
2016-Aug-11 00:33N 40°41' W 074°09'0 0.0
2016-Aug-10 23:30N 40°41' W 074°09'0 0.0
2016-Aug-10 22:30N 40°41' W 074°09'0 0.0
2016-Aug-10 21:30N 40°41' W 074°09'0 0.0
2016-Aug-10 20:33N 40°41' W 074°09'0 0.0
2016-Aug-10 19:30N 40°41' W 074°09'0 0.0
2016-Aug-10 18:30N 40°41' W 074°09'0 0.0
2016-Aug-10 17:33N 40°41' W 074°09'0 0.0
2016-Aug-10 16:33N 40°41' W 074°09'0 0.0
2016-Aug-10 15:33N 40°41' W 074°09'  
Track history (hours):
 
Tides and Currents Weather Stations Pressure Air Temp Water Temp Dewpoint Dewpoint Depression Visibility Wind Speed Wind Dir Waves Ship Positions

Maersk Visby

Last reported at 2016-Aug-20 15:31 UTC. Time now 2016-Aug-24 16:13 UTC.
Position N 17°38' W 060°47'.

Length 180 m; draft 8.1 m.

Type: Ship (hazmat cat A). MMSI: 564979000.

Date/timePositionNaut miles runAvg speedWind from/ knotsBaromVisibWave heightAir tempDewpointWater temp
2016-Aug-20 15:31N 17°38' W 060°47'1415.0
2016-Aug-20 14:33N 17°46' W 061°00'1615.2
2016-Aug-20 13:30N 17°55' W 061°14'1915.4
2016-Aug-20 12:16N 18°06' W 061°30'  
2016-Aug-15 03:04N 32°56' W 078°42'714.5
2016-Aug-15 02:33N 32°59' W 078°34'1414.3
2016-Aug-15 01:33N 33°04' W 078°18'8814.1
2016-Aug-14 19:22N 33°53' W 076°51'1214.4
2016-Aug-14 18:30N 34°01' W 076°39'1614.7
2016-Aug-14 17:24N 34°11' W 076°24'1915.2
2016-Aug-14 16:09N 34°23' W 076°06'14810.2
2016-Aug-14 01:32N 36°51' W 075°50'1313.2
2016-Aug-14 00:33N 36°58' W 076°04'1312.9
2016-Aug-13 23:33N 36°57' W 076°20'5 4.6
2016-Aug-13 22:33N 36°53' W 076°21'0 0.0
2016-Aug-13 21:31N 36°53' W 076°21'0 0.0
2016-Aug-13 20:31N 36°53' W 076°21'0 0.0
2016-Aug-13 19:31N 36°53' W 076°21'0 0.0
2016-Aug-13 18:31N 36°53' W 076°21'0 0.0
2016-Aug-13 17:31N 36°53' W 076°21'0 0.0
2016-Aug-13 16:31N 36°53' W 076°21'0 0.0
2016-Aug-13 15:31N 36°53' W 076°21'0 0.2
2016-Aug-13 14:33N 36°53' W 076°21'11 8.0
2016-Aug-13 13:13N 36°59' W 076°10'913.6
2016-Aug-13 12:33N 36°57' W 075°60'1716.1
2016-Aug-13 11:31N 37°12' W 076°09'1717.4
2016-Aug-13 10:33N 37°28' W 076°04'2016.4
2016-Aug-13 09:19N 37°48' W 076°11'1417.9
2016-Aug-13 08:34N 38°01' W 076°12'2018.6
2016-Aug-13 07:30N 38°20' W 076°19'1917.7
2016-Aug-13 06:26N 38°39' W 076°25'1617.7
2016-Aug-13 05:33N 38°54' W 076°24'1515.2
2016-Aug-13 04:33N 39°09' W 076°25'9 8.7
2016-Aug-13 03:33N 39°15' W 076°33'0 0.0
2016-Aug-13 02:33N 39°15' W 076°33'0 0.0
2016-Aug-13 01:33N 39°15' W 076°33'0 0.0
2016-Aug-13 00:33N 39°15' W 076°33'0 0.0
2016-Aug-12 23:33N 39°15' W 076°33'0 0.0
2016-Aug-12 22:33N 39°15' W 076°33'0 0.0
2016-Aug-12 21:33N 39°15' W 076°33'0 0.0
2016-Aug-12 20:33N 39°15' W 076°33'0 0.0
2016-Aug-12 19:33N 39°15' W 076°33'0 0.0
2016-Aug-12 18:33N 39°15' W 076°33'0 0.0
2016-Aug-12 17:24N 39°15' W 076°33'0 0.0
2016-Aug-12 16:33N 39°15' W 076°33'0 0.0
2016-Aug-12 15:33N 39°15' W 076°33'0 0.0
2016-Aug-12 14:33N 39°15' W 076°33'0 0.0
2016-Aug-12 13:30N 39°15' W 076°33'0 0.0
2016-Aug-12 12:33N 39°15' W 076°33'0 0.0
2016-Aug-12 11:33N 39°15' W 076°33'0 0.0
2016-Aug-12 10:33N 39°15' W 076°33'2 1.8
2016-Aug-12 09:33N 39°14' W 076°32'1312.9
2016-Aug-12 08:33N 39°03' W 076°23'1716.7
2016-Aug-12 07:33N 38°46' W 076°26'2418.8
2016-Aug-12 06:18N 38°23' W 076°20'1317.9
2016-Aug-12 05:33N 38°10' W 076°14'1919.1
2016-Aug-12 04:33N 37°52' W 076°09'1816.2
2016-Aug-12 03:27N 37°35' W 076°03'1617.3
2016-Aug-12 02:33N 37°19' W 076°06'1816.1
2016-Aug-12 01:26N 37°01' W 076°03'1313.5
2016-Aug-12 00:30N 36°53' W 075°52'2312.0
2016-Aug-11 22:33N 36°55' W 075°22'8013.1
2016-Aug-11 16:25N 38°01' W 074°25'2512.7
2016-Aug-11 14:28N 38°22' W 074°07'1212.9
2016-Aug-11 13:33N 38°32' W 074°01'1312.9
2016-Aug-11 12:33N 38°45' W 073°59'1312.9
2016-Aug-11 11:33N 38°58' W 073°57'1312.6
2016-Aug-11 10:34N 39°10' W 073°55'1212.5
2016-Aug-11 09:33N 39°23' W 073°54'1312.5
2016-Aug-11 08:33N 39°35' W 073°53'1312.6
2016-Aug-11 07:33N 39°48' W 073°51'1312.5
2016-Aug-11 06:33N 40°00' W 073°50'2811.4
2016-Aug-11 04:05N 40°29' W 073°53'913.2
2016-Aug-11 03:26N 40°34' W 074°02'7 7.7
2016-Aug-11 02:33N 40°39' W 074°08'3 2.7
2016-Aug-11 01:33N 40°41' W 074°09'0 0.0
2016-Aug-11 00:33N 40°41' W 074°09'0 0.0
2016-Aug-10 23:30N 40°41' W 074°09'0 0.0
2016-Aug-10 22:30N 40°41' W 074°09'0 0.0
2016-Aug-10 21:30N 40°41' W 074°09'0 0.0
2016-Aug-10 20:33N 40°41' W 074°09'0 0.0
2016-Aug-10 19:30N 40°41' W 074°09'0 0.0
2016-Aug-10 18:30N 40°41' W 074°09'0 0.0
2016-Aug-10 17:33N 40°41' W 074°09'0 0.0
2016-Aug-10 16:33N 40°41' W 074°09'0 0.0
2016-Aug-10 15:33N 40°41' W 074°09'  

Dump ship's entire track history